weather.gov     
National Weather Service

Terminal Aerodrome Forecast
NWS Homepage
This page is being discontinued on March 12, 2014.
The same data is available at this site. Please update your bookmarks.
Thank you, and we apologize for the inconvenience.
Please send an email to SR-SRH.Webmaster@noaa.gov with any concerns.


Current Version
Previous Version:    01  02  03  04  05  06  07  08  09  10  11  12  13  14  15  16  17  18  19  20  21  22  23  24  25  26  27  28  29  30  
   31  32  33  34  35  36  37  
[Printable]
166
FTUS46 KSEW 200300 AAA
TAFPAE
TAF AMD
KPAE 200304Z 2003/2024 21014G22KT P6SM VCSH SCT025 BKN040 OVC100
      TEMPO 2003/2006 -SHRA BKN025 OVC040
     FM200600 17012KT P6SM VCSH BKN030 BKN060
     FM201100 16007KT P6SM BKN030
     FM202000 20008KT P6SM SCT030 BKN070=


U.S. Dept. of Commerce
NOAA National Weather Service
1325 East West Highway
Silver Spring, MD 20910
E-mail: w-nws.webmaster@noaa.gov
Page last modified: May 16, 2007
NATIONAL WEATHER SERVICE: for Safety, for Work, for Fun - FOR LIFE